Latest Weather Observations for Portland Harbour

IDV60801

Issued at 9:32 pm EDT Monday 20 February 2017 (issued every 30 minutes, with the page automatically refreshed every 10 minutes)

About weather observations | Map of weather stations | Latest weather observations for VIC | Other Formats
Station Details ID: 090192 Name: PORTLAND NTC AWS Lat: -38.34 Lon: 141.61 Height: 0.0 m
Data from the previous 72 hours. | See also: Recent months for locations in Victoria
Date/Time
EDT
Temp
°C
App
Temp
°C
Dew
Point
°C
Rel
Hum
%
Delta-T
°C
Wind Press
QNH
hPa
Press
MSL
hPa
Rain since
9am
mm
Dir  Spd
km/h
Gust
km/h
Spd
kts
Gust
kts
20/09:30pm 14.7 - - - - SSW 7 9 4 5 1019.1 1019.1 -
20/09:00pm 15.3 - - - - SW 9 13 5 7 1018.9 1018.9 -
20/08:30pm 15.5 - - - - SSW 11 15 6 8 1018.5 1018.5 -
20/08:00pm 15.9 - - - - SSW 17 24 9 13 1018.1 1018.1 -
20/07:30pm 16.1 - - - - SSW 17 24 9 13 1017.8 1017.8 -
20/07:00pm 16.2 - - - - SSW 17 24 9 13 1017.3 1017.3 -
20/06:30pm 16.1 - - - - SSW 19 28 10 15 1017.2 1017.2 -
20/06:00pm 16.4 - - - - SSW 20 30 11 16 1017.0 1017.0 -
20/05:30pm 16.6 - - - - SW 24 33 13 18 1016.8 1016.8 -
20/05:00pm 16.8 - - - - SW 24 35 13 19 1016.6 1016.6 -
20/04:30pm 16.6 - - - - SW 28 39 15 21 1016.4 1016.4 -
20/04:00pm 16.6 - - - - SW 28 43 15 23 1016.5 1016.5 -
20/03:30pm 16.6 - - - - SSW 28 39 15 21 1016.4 1016.4 -
20/03:00pm 16.7 - - - - SW 32 41 17 22 1016.3 1016.3 -
20/02:30pm 16.1 - - - - SSW 28 37 15 20 1016.4 1016.4 -
20/02:00pm 15.8 - - - - SSW 32 43 17 23 1016.5 1016.5 -
20/01:30pm 16.6 - - - - SW 26 35 14 19 1016.4 1016.4 -
20/01:00pm 16.5 - - - - SW 26 33 14 18 1016.3 1016.3 -
20/12:30pm 16.3 - - - - SW 26 37 14 20 1016.5 1016.5 -
20/12:00pm 16.1 - - - - SW 26 37 14 20 1016.5 1016.5 -
20/11:30am 15.9 - - - - SSW 26 37 14 20 1016.4 1016.4 -
20/11:00am 15.1 - - - - SSW 17 24 9 13 1016.4 1016.4 -
20/10:30am 14.9 - - - - SW 22 32 12 17 1016.3 1016.3 -
20/10:00am 15.5 - - - - SSW 30 37 16 20 1015.9 1015.9 -
20/09:30am 15.4 - - - - SSW 26 35 14 19 1015.6 1015.6 -
20/09:00am 15.1 - - - - SSW 22 33 12 18 1015.5 1015.5 -
20/08:30am 14.9 - - - - SW 17 26 9 14 1015.1 1015.1 -
20/08:00am 14.9 - - - - SSW 17 24 9 13 1014.6 1014.6 -
20/07:30am 15.1 - - - - SSW 26 33 14 18 1014.2 1014.2 -
20/07:00am 15.0 - - - - SSW 20 32 11 17 1013.8 1013.8 -
20/06:30am 14.8 - - - - SSW 22 32 12 17 1013.5 1013.5 -
20/06:00am 15.0 - - - - SSW 24 35 13 19 1013.3 1013.3 -
20/05:30am 14.9 - - - - SSW 26 35 14 19 1013.2 1013.2 -
20/05:00am 14.7 - - - - SSW 24 35 13 19 1013.1 1013.1 -
20/04:30am 14.8 - - - - SSW 24 41 13 22 1013.1 1013.1 -
20/04:00am 14.7 - - - - SSW 22 28 12 15 1013.0 1013.0 -
20/03:30am 14.8 - - - - SSW 22 33 12 18 1013.0 1013.0 -
20/03:00am 14.6 - - - - SW 26 35 14 19 1013.0 1013.0 -
20/02:30am 14.4 - - - - SW 17 22 9 12 1013.0 1013.0 -
20/02:00am 14.5 - - - - SSW 24 32 13 17 1013.1 1013.1 -
20/01:30am 14.6 - - - - SSW 24 35 13 19 1013.2 1013.2 -
20/01:00am 14.1 - - - - SW 19 26 10 14 1013.1 1013.1 -
20/12:30am 13.7 - - - - SW 19 26 10 14 1013.2 1013.2 -
20/12:00am 13.7 - - - - SW 20 28 11 15 1013.3 1013.3 -
 
Date/Time
EDT
Temp
°C
App
Temp
°C
Dew
Point
°C
Rel
Hum
%
Delta-T
°C
Wind Press
QNH
hPa
Press
MSL
hPa
Rain since
9am
mm
Dir  Spd
km/h
Gust
km/h
Spd
kts
Gust
kts
19/11:36pm 14.1 - - - - SSW 28 50 15 27 1013.4 1013.4 -
19/11:30pm 14.5 - - - - SW 24 41 13 22 1013.2 1013.2 -
19/11:00pm 14.4 - - - - SW 26 39 14 21 1013.2 1013.2 -
19/10:30pm 14.4 - - - - SW 28 39 15 21 1013.2 1013.2 -
19/10:00pm 14.1 - - - - SW 24 35 13 19 1013.2 1013.2 -
19/09:30pm 14.4 - - - - SSW 24 33 13 18 1012.9 1012.9 -
19/09:00pm 14.4 - - - - SW 28 35 15 19 1012.6 1012.6 -
19/08:30pm 14.3 - - - - SW 28 39 15 21 1012.2 1012.2 -
19/08:00pm 14.7 - - - - SW 32 50 17 27 1011.9 1011.9 -
19/07:32pm 14.9 - - - - SSW 30 50 16 27 1011.5 1011.5 -
19/07:30pm 14.9 - - - - SW 32 43 17 23 1011.5 1011.5 -
19/07:00pm 15.0 - - - - SSW 32 44 17 24 1011.2 1011.2 -
19/06:30pm 14.9 - - - - SSW 33 46 18 25 1011.2 1011.2 -
19/06:00pm 14.5 - - - - SSW 32 44 17 24 1011.1 1011.1 -
19/05:42pm 14.1 - - - - SSW 32 52 17 28 1011.0 1011.0 -
19/05:30pm 15.1 - - - - SSW 33 46 18 25 1010.8 1010.8 -
19/05:00pm 14.5 - - - - SSW 32 44 17 24 1010.8 1010.8 -
19/04:30pm 14.3 - - - - SSW 41 61 22 33 1010.6 1010.6 -
19/04:25pm 15.1 - - - - SSW 37 50 20 27 1010.5 1010.5 -
19/04:00pm 15.3 - - - - SW 39 52 21 28 1010.6 1010.6 -
19/03:30pm 15.3 - - - - SW 35 50 19 27 1010.7 1010.7 -
19/03:00pm 15.2 - - - - SW 39 54 21 29 1010.7 1010.7 -
19/02:37pm 15.3 - - - - SW 35 56 19 30 1010.7 1010.7 -
19/02:30pm 15.8 - - - - SW 35 50 19 27 1010.6 1010.6 -
19/02:03pm 15.2 - - - - SW 39 57 21 31 1010.7 1010.7 -
19/02:00pm 15.4 - - - - SW 41 57 22 31 1010.7 1010.7 -
19/01:30pm 15.3 - - - - SW 43 57 23 31 1010.7 1010.7 -
19/01:00pm 15.1 - - - - SW 39 57 21 31 1010.9 1010.9 -
19/12:32pm 15.8 - - - - SW 35 54 19 29 1010.8 1010.8 -
19/12:30pm 15.5 - - - - SW 37 50 20 27 1010.9 1010.9 -
19/12:00pm 14.8 - - - - SW 33 54 18 29 1011.3 1011.3 -
19/11:46am 14.8 - - - - SSW 35 54 19 29 1011.3 1011.3 -
19/11:30am 14.1 - - - - SSW 39 52 21 28 1011.3 1011.3 -
19/11:20am 15.1 - - - - SW 39 59 21 32 1011.2 1011.2 -
19/11:00am 14.9 - - - - SW 33 50 18 27 1011.1 1011.1 -
19/10:52am 14.9 - - - - SW 32 50 17 27 1011.1 1011.1 -
19/10:46am 14.7 - - - - SW 30 48 16 26 1011.1 1011.1 -
19/10:30am 14.1 - - - - SW 20 28 11 15 1011.1 1011.1 -
19/10:00am 12.6 - - - - WSW 28 46 15 25 1011.0 1011.0 -
19/09:31am 13.5 - - - - SW 28 46 15 25 1010.9 1010.9 -
19/09:30am 13.6 - - - - SW 30 46 16 25 1010.9 1010.9 -
19/09:22am 14.0 - - - - SSW 28 46 15 25 1010.9 1010.9 -
19/09:00am 13.5 - - - - SSW 26 37 14 20 1010.6 1010.6 -
19/08:30am 12.9 - - - - SW 22 35 12 19 1010.2 1010.2 -
19/08:16am 12.6 - - - - SW 28 54 15 29 1010.5 1010.5 -
19/08:00am 13.3 - - - - SW 20 30 11 16 1010.1 1010.1 -
19/07:30am 12.8 - - - - SW 22 32 12 17 1010.1 1010.1 -
19/07:00am 12.2 - - - - SW 26 44 14 24 1009.8 1009.8 -
19/06:31am 12.7 - - - - SW 30 48 16 26 1009.6 1009.6 -
19/06:30am 12.5 - - - - SW 30 48 16 26 1009.6 1009.6 -
19/06:00am 12.9 - - - - WSW 19 32 10 17 1009.6 1009.6 -
19/05:41am 12.6 - - - - WSW 28 52 15 28 1009.8 1009.8 -
19/05:30am 13.4 - - - - SW 26 39 14 21 1009.5 1009.5 -
19/05:00am 14.4 - - - - SW 26 39 14 21 1009.6 1009.6 -
19/04:47am 14.4 - - - - SW 32 50 17 27 1009.8 1009.8 -
19/04:30am 14.9 - - - - WSW 22 35 12 19 1009.6 1009.6 -
19/04:00am 14.6 - - - - WSW 24 39 13 21 1009.8 1009.8 -
19/03:30am 14.2 - - - - WSW 19 30 10 16 1010.0 1010.0 -
19/03:00am 12.9 - - - - W 24 37 13 20 1010.4 1010.4 -
19/02:30am 13.7 - - - - WSW 26 35 14 19 1010.8 1010.8 -
19/02:00am 13.7 - - - - WSW 20 35 11 19 1011.1 1011.1 -
19/01:30am 13.6 - - - - WSW 19 28 10 15 1011.6 1011.6 -
19/01:09am 13.1 - - - - SW 32 52 17 28 1011.8 1011.8 -
19/01:00am 14.0 - - - - WSW 28 44 15 24 1011.8 1011.8 -
19/12:30am 13.4 - - - - WSW 15 22 8 12 1012.0 1012.0 -
19/12:00am 13.6 - - - - WSW 17 24 9 13 1012.0 1012.0 -
 
Date/Time
EDT
Temp
°C
App
Temp
°C
Dew
Point
°C
Rel
Hum
%
Delta-T
°C
Wind Press
QNH
hPa
Press
MSL
hPa
Rain since
9am
mm
Dir  Spd
km/h
Gust
km/h
Spd
kts
Gust
kts
18/11:30pm 13.5 - - - - W 13 22 7 12 1012.3 1012.3 -
18/11:00pm 13.5 - - - - WSW 15 22 8 12 1012.6 1012.6 -
18/10:30pm 13.2 - - - - WSW 15 22 8 12 1012.8 1012.8 -
18/10:00pm 12.7 - - - - W 13 24 7 13 1012.8 1012.8 -
18/09:30pm 13.0 - - - - W 17 26 9 14 1012.7 1012.7 -
18/09:00pm 12.4 - - - - W 7 13 4 7 1012.7 1012.7 -
18/08:30pm 12.7 - - - - W 13 22 7 12 1012.7 1012.7 -
18/08:02pm 12.9 - - - - WSW 28 46 15 25 1012.7 1012.7 -
18/08:00pm 13.1 - - - - WSW 26 43 14 23 1012.6 1012.6 -
18/07:30pm 15.3 - - - - WSW 24 33 13 18 1012.2 1012.2 -
18/07:00pm 15.3 - - - - WSW 19 28 10 15 1012.1 1012.1 -
18/06:30pm 15.4 - - - - WSW 24 33 13 18 1012.1 1012.1 -
18/06:00pm 15.8 - - - - WSW 28 41 15 22 1012.0 1012.0 -
18/05:30pm 14.7 - - - - WSW 20 37 11 20 1012.1 1012.1 -
18/05:00pm 13.9 - - - - WSW 24 33 13 18 1012.2 1012.2 -
18/04:30pm 14.6 - - - - SW 28 37 15 20 1012.3 1012.3 -
18/04:00pm 15.2 - - - - SW 30 39 16 21 1012.3 1012.3 -
18/03:30pm 15.1 - - - - SW 30 39 16 21 1012.5 1012.5 -
18/03:00pm 15.7 - - - - SW 28 39 15 21 1012.4 1012.4 -
18/02:30pm 15.2 - - - - SW 24 37 13 20 1012.4 1012.4 -
18/02:14pm 15.7 - - - - SW 28 48 15 26 1012.3 1012.3 -
18/02:00pm 15.7 - - - - WSW 20 30 11 16 1012.1 1012.1 -
18/01:30pm 13.9 - - - - SW 30 50 16 27 1012.3 1012.3 -
18/01:27pm 14.3 - - - - SW 28 50 15 27 1012.3 1012.3 -
18/01:00pm 15.4 - - - - SW 26 39 14 21 1012.3 1012.3 -
18/12:30pm 15.1 - - - - SW 26 37 14 20 1012.1 1012.1 -
18/12:00pm 15.5 - - - - WSW 24 35 13 19 1012.1 1012.1 -
18/11:30am 14.1 - - - - SW 11 17 6 9 1012.3 1012.3 -
18/11:00am 12.4 - - - - SW 28 41 15 22 1012.7 1012.7 -
18/10:40am 14.8 - - - - WSW 30 52 16 28 1011.9 1011.9 -
18/10:30am 16.0 - - - - WSW 22 33 12 18 1012.0 1012.0 -
18/10:00am 15.2 - - - - WSW 20 28 11 15 1011.8 1011.8 -
18/09:30am 14.3 - - - - WSW 13 20 7 11 1011.5 1011.5 -
18/09:00am 14.5 - - - - SW 15 24 8 13 1011.3 1011.3 -
18/08:30am 14.5 - - - - WSW 13 24 7 13 1011.0 1011.0 -
18/08:00am 13.7 - - - - WSW 7 11 4 6 1010.9 1010.9 -
18/07:30am 13.4 - - - - WSW 13 19 7 10 1010.6 1010.6 -
18/07:00am 12.8 - - - - W 9 15 5 8 1010.2 1010.2 -
18/06:30am 12.5 - - - - WSW 9 15 5 8 1010.0 1010.0 -
18/06:00am 12.2 - - - - W 9 15 5 8 1009.8 1009.8 -
18/05:30am 11.9 - - - - WNW 7 9 4 5 1009.8 1009.8 -
18/05:00am 12.0 - - - - WNW 9 11 5 6 1009.7 1009.7 -
18/04:30am 12.5 - - - - W 17 28 9 15 1009.8 1009.8 -
18/04:00am 12.4 - - - - W 11 15 6 8 1010.0 1010.0 -
18/03:30am 12.8 - - - - WSW 13 19 7 10 1010.0 1010.0 -
18/03:00am 13.4 - - - - WSW 17 28 9 15 1010.2 1010.2 -
18/02:30am 12.5 - - - - WSW 15 28 8 15 1010.3 1010.3 -
18/02:00am 12.3 - - - - WNW 6 9 3 5 1010.4 1010.4 -
18/01:30am 12.6 - - - - WNW 11 19 6 10 1010.5 1010.5 -
18/01:00am 12.8 - - - - WNW 9 13 5 7 1010.5 1010.5 -
18/12:30am 13.3 - - - - W 11 17 6 9 1010.8 1010.8 -
18/12:00am 13.8 - - - - W 13 20 7 11 1010.9 1010.9 -
 
Date/Time
EDT
Temp
°C
App
Temp
°C
Dew
Point
°C
Rel
Hum
%
Delta-T
°C
Wind Press
QNH
hPa
Press
MSL
hPa
Rain since
9am
mm
Dir  Spd
km/h
Gust
km/h
Spd
kts
Gust
kts
17/11:30pm 14.2 - - - - W 11 17 6 9 1010.9 1010.9 -
17/11:00pm 14.1 - - - - WSW 13 24 7 13 1011.3 1011.3 -
17/10:30pm 14.2 - - - - W 11 28 6 15 1011.3 1011.3 -
17/10:00pm 14.4 - - - - W 11 20 6 11 1010.9 1010.9 -

Other Formats:

Comma delimited format used in spreadsheet applications
http://www.bom.gov.au/fwo/IDV60801/IDV60801.95826.axf

JavaScript Object Notation format (JSON) in row-major order
http://www.bom.gov.au/fwo/IDV60801/IDV60801.95826.json